createdAt,value
2022-10-05T00:00:15.785Z,8.83
2022-10-05T00:02:42.942Z,8.81
2022-10-05T00:05:29.586Z,8.82
2022-10-05T00:08:04.381Z,8.85
2022-10-05T00:10:31.452Z,8.81
2022-10-05T00:12:57.857Z,8.85
2022-10-05T00:15:24.288Z,8.83
2022-10-05T00:17:50.721Z,8.74
2022-10-05T00:20:25.647Z,8.51
2022-10-05T00:22:57.658Z,8.53
2022-10-05T00:25:24.844Z,8.58
2022-10-05T00:27:58.642Z,8.53
2022-10-05T00:30:31.008Z,8.47
2022-10-05T00:32:59.624Z,8.48
2022-10-05T00:35:29.139Z,8.49
2022-10-05T00:37:56.177Z,8.43
2022-10-05T00:40:35.455Z,8.49
2022-10-05T00:43:26.965Z,8.27
2022-10-05T00:46:40.089Z,8.19
2022-10-05T00:49:34.341Z,8.27
2022-10-05T00:52:52.218Z,8.29
2022-10-05T00:55:38.649Z,8.27
2022-10-05T00:58:32.897Z,8.33
2022-10-05T01:01:13.765Z,8.41
2022-10-05T01:03:58.786Z,8.41
2022-10-05T01:06:50.426Z,8.09
2022-10-05T01:09:42.258Z,7.96
2022-10-05T01:12:11.668Z,7.87
2022-10-05T01:14:44.241Z,7.98
2022-10-05T01:17:10.608Z,8.05
2022-10-05T01:20:12.789Z,8.13
2022-10-05T01:23:00.537Z,8.18
2022-10-05T01:25:41.130Z,8.16
2022-10-05T01:28:23.975Z,7.92
2022-10-05T01:31:00.173Z,7.77
2022-10-05T01:33:41.857Z,7.72
2022-10-05T01:36:19.696Z,7.70
2022-10-05T01:39:13.997Z,7.77
2022-10-05T01:41:51.768Z,7.78
2022-10-05T01:44:26.029Z,7.80
2022-10-05T01:47:17.141Z,7.77
2022-10-05T01:49:55.386Z,7.84
2022-10-05T01:53:06.312Z,7.87
2022-10-05T01:55:48.005Z,7.89
2022-10-05T01:58:29.412Z,8.03
2022-10-05T02:01:09.608Z,8.14
2022-10-05T02:03:42.573Z,8.11
2022-10-05T02:06:15.128Z,8.22
2022-10-05T02:08:49.448Z,8.28
2022-10-05T02:11:18.513Z,8.35
2022-10-05T02:13:50.727Z,8.40
2022-10-05T02:16:36.350Z,8.29
2022-10-05T02:19:16.786Z,8.30
2022-10-05T02:21:48.925Z,8.32
2022-10-05T02:24:27.113Z,8.33
2022-10-05T02:26:56.452Z,8.29
2022-10-05T02:29:27.495Z,8.28
2022-10-05T02:32:00.072Z,8.35
2022-10-05T02:34:43.563Z,8.34
2022-10-05T02:37:39.648Z,8.38
2022-10-05T02:40:15.649Z,8.41
2022-10-05T02:42:52.133Z,8.42
2022-10-05T02:45:32.484Z,8.43
2022-10-05T02:48:19.576Z,8.47
2022-10-05T02:51:02.764Z,8.29
2022-10-05T02:54:13.351Z,8.05
2022-10-05T02:56:55.730Z,8.00
2022-10-05T02:59:31.027Z,7.97
2022-10-05T03:02:15.958Z,7.97
2022-10-05T03:04:45.528Z,8.07
2022-10-05T03:07:17.843Z,8.14
2022-10-05T03:10:00.918Z,8.26
2022-10-05T03:12:50.242Z,8.38
2022-10-05T03:15:48.727Z,8.33
2022-10-05T03:18:48.228Z,8.32
2022-10-05T03:21:33.529Z,8.19
2022-10-05T03:24:26.229Z,8.37
2022-10-05T03:27:02.380Z,8.12
2022-10-05T03:29:47.245Z,8.06
2022-10-05T03:32:29.089Z,7.86
2022-10-05T03:35:03.305Z,7.73
2022-10-05T03:37:41.887Z,7.70
2022-10-05T03:40:26.525Z,7.65
2022-10-05T03:43:12.698Z,7.48
2022-10-05T03:46:00.738Z,7.30
2022-10-05T03:48:28.017Z,7.29
2022-10-05T03:51:15.639Z,7.30
2022-10-05T03:53:52.988Z,7.37
2022-10-05T03:56:34.722Z,7.43
2022-10-05T03:59:07.493Z,7.37
2022-10-05T04:01:47.580Z,7.37
2022-10-05T04:04:22.894Z,7.25
2022-10-05T04:06:52.880Z,7.14
2022-10-05T04:09:39.419Z,7.09
2022-10-05T04:12:30.309Z,7.12
2022-10-05T04:15:02.857Z,7.15
2022-10-05T04:17:54.457Z,7.17
2022-10-05T04:20:56.549Z,7.25
2022-10-05T04:23:29.025Z,7.25
2022-10-05T04:26:04.633Z,7.26
2022-10-05T04:29:02.461Z,7.27
2022-10-05T04:32:00.229Z,7.37
2022-10-05T04:34:48.599Z,7.42
2022-10-05T04:37:46.663Z,7.44
2022-10-05T04:41:01.741Z,7.48
2022-10-05T04:43:53.096Z,7.49
2022-10-05T04:46:38.137Z,7.48
2022-10-05T04:49:14.063Z,7.49
2022-10-05T04:51:52.911Z,7.54
2022-10-05T04:55:07.036Z,7.55
2022-10-05T04:57:50.201Z,7.34
2022-10-05T05:00:25.751Z,7.20
2022-10-05T05:03:10.942Z,7.22
2022-10-05T05:06:15.409Z,7.16
2022-10-05T05:09:13.378Z,7.18
2022-10-05T05:12:04.263Z,7.19
2022-10-05T05:14:59.984Z,7.21
2022-10-05T05:17:32.525Z,7.08
2022-10-05T05:20:27.052Z,6.89
2022-10-05T05:23:12.807Z,6.55
2022-10-05T05:26:21.594Z,6.42
2022-10-05T05:28:57.995Z,6.41
2022-10-05T05:31:30.036Z,6.41
2022-10-05T05:34:30.635Z,6.30
2022-10-05T05:37:17.986Z,6.47
2022-10-05T05:40:06.022Z,6.58
2022-10-05T05:42:49.130Z,6.70
2022-10-05T05:45:39.918Z,6.58
2022-10-05T05:48:18.025Z,6.38
2022-10-05T05:51:09.486Z,6.42
2022-10-05T05:53:41.742Z,6.56
2022-10-05T05:56:14.949Z,6.82
2022-10-05T05:58:53.342Z,6.95
2022-10-05T06:01:33.114Z,6.88
2022-10-05T06:04:43.641Z,6.89
2022-10-05T06:07:21.005Z,7.02
2022-10-05T06:10:05.481Z,7.10
2022-10-05T06:12:47.342Z,7.22
2022-10-05T06:15:27.233Z,6.97
2022-10-05T06:17:57.012Z,6.87
2022-10-05T06:20:40.409Z,7.03
2022-10-05T06:23:22.373Z,7.11
2022-10-05T06:26:13.485Z,7.06
2022-10-05T06:28:42.296Z,7.18
2022-10-05T06:31:30.645Z,7.15
2022-10-05T06:34:38.021Z,7.40
2022-10-05T06:37:13.068Z,7.30
2022-10-05T06:40:00.097Z,7.28
2022-10-05T06:42:58.337Z,7.33
2022-10-05T06:46:00.079Z,7.52
2022-10-05T06:48:46.989Z,7.59
2022-10-05T06:51:50.193Z,7.73
2022-10-05T06:54:45.803Z,7.87
2022-10-05T06:57:45.127Z,7.91
2022-10-05T07:00:27.583Z,8.02
2022-10-05T07:03:18.173Z,8.13
2022-10-05T07:05:44.908Z,8.23
2022-10-05T07:08:36.478Z,8.45
2022-10-05T07:11:21.845Z,8.49
2022-10-05T07:14:23.409Z,8.63
2022-10-05T07:17:07.794Z,8.91
2022-10-05T07:20:11.765Z,8.94
2022-10-05T07:23:01.992Z,8.96
2022-10-05T07:25:34.981Z,9.02
2022-10-05T07:28:46.409Z,9.09
2022-10-05T07:31:26.950Z,9.21
2022-10-05T07:34:19.034Z,9.29
2022-10-05T07:37:26.254Z,9.41
2022-10-05T07:40:03.998Z,9.51
2022-10-05T07:42:52.942Z,9.58
2022-10-05T07:45:47.593Z,9.66
2022-10-05T07:48:20.623Z,9.80
2022-10-05T07:51:00.060Z,9.92
2022-10-05T07:53:40.452Z,10.09
2022-10-05T07:56:36.719Z,10.27
2022-10-05T07:59:14.554Z,10.36
2022-10-05T08:01:47.931Z,10.53
2022-10-05T08:04:19.842Z,10.59
2022-10-05T08:07:06.779Z,10.74
2022-10-05T08:09:39.761Z,10.78
2022-10-05T08:12:27.421Z,10.84
2022-10-05T08:15:31.513Z,10.90
2022-10-05T08:18:02.147Z,10.99
2022-10-05T08:20:47.164Z,11.06
2022-10-05T08:23:42.501Z,11.15
2022-10-05T08:26:17.913Z,11.31
2022-10-05T08:29:22.377Z,11.39
2022-10-05T08:31:51.881Z,11.48
2022-10-05T08:34:45.718Z,11.63
2022-10-05T08:37:20.883Z,11.78
2022-10-05T08:39:53.350Z,11.91
2022-10-05T08:42:36.162Z,11.99
2022-10-05T08:45:20.832Z,12.10
2022-10-05T08:48:23.331Z,12.29
2022-10-05T08:50:58.632Z,12.36
2022-10-05T08:53:54.217Z,12.52
2022-10-05T08:56:33.649Z,12.69
2022-10-05T08:58:59.997Z,12.83
2022-10-05T09:01:29.518Z,12.89
2022-10-05T09:04:04.893Z,12.97
2022-10-05T09:06:54.405Z,13.11
2022-10-05T09:09:37.522Z,13.25
2022-10-05T09:12:41.078Z,13.40
2022-10-05T09:15:45.363Z,13.61
2022-10-05T09:18:45.240Z,13.77
2022-10-05T09:21:38.302Z,13.90
2022-10-05T09:24:27.255Z,14.18
2022-10-05T09:27:12.750Z,14.34
2022-10-05T09:29:51.322Z,14.50
2022-10-05T09:32:36.658Z,14.61
2022-10-05T09:35:22.210Z,14.74
2022-10-05T09:37:57.666Z,14.89
2022-10-05T09:40:53.774Z,15.05
2022-10-05T09:43:30.566Z,15.20
2022-10-05T09:46:11.509Z,15.42
2022-10-05T09:48:56.844Z,15.48
2022-10-05T09:51:29.227Z,15.82
2022-10-05T09:54:14.603Z,16.16
2022-10-05T09:57:18.478Z,16.49
2022-10-05T09:59:47.588Z,16.46
2022-10-05T10:02:33.721Z,16.63
2022-10-05T10:05:20.056Z,16.77
2022-10-05T10:08:05.639Z,16.75
2022-10-05T10:11:07.496Z,16.89
2022-10-05T10:13:39.924Z,17.08
2022-10-05T10:16:25.247Z,17.24
2022-10-05T10:19:01.639Z,17.11
2022-10-05T10:21:59.688Z,17.42
2022-10-05T10:24:48.063Z,17.29
2022-10-05T10:27:40.887Z,17.54
2022-10-05T10:30:27.647Z,17.52
2022-10-05T10:33:15.402Z,17.46
2022-10-05T10:36:00.509Z,17.48
2022-10-05T10:38:40.214Z,17.37
2022-10-05T10:41:06.596Z,17.34
2022-10-05T10:44:10.973Z,17.28
2022-10-05T10:46:53.146Z,17.42
2022-10-05T10:49:29.136Z,17.50
2022-10-05T10:52:19.487Z,17.52
2022-10-05T10:54:57.176Z,17.96
2022-10-05T10:57:29.474Z,17.87
2022-10-05T11:00:02.670Z,17.90
2022-10-05T11:02:47.270Z,18.06
2022-10-05T11:05:30.023Z,18.31
2022-10-05T11:08:13.452Z,18.26
2022-10-05T11:11:07.573Z,18.45
2022-10-05T11:14:02.546Z,18.53
2022-10-05T11:16:59.574Z,18.46
2022-10-05T11:19:40.326Z,18.55
2022-10-05T11:22:31.377Z,18.64
2022-10-05T11:25:16.828Z,18.93
2022-10-05T11:28:15.457Z,18.82
2022-10-05T11:31:00.973Z,18.91
2022-10-05T11:33:49.236Z,19.25
2022-10-05T11:36:50.643Z,19.24
2022-10-05T11:39:36.735Z,19.25
2022-10-05T11:42:06.185Z,19.45
2022-10-05T11:45:19.044Z,19.50
2022-10-05T11:48:03.661Z,19.51
2022-10-05T11:50:50.413Z,19.91
2022-10-05T11:53:46.391Z,20.05
2022-10-05T11:56:31.345Z,19.86
2022-10-05T11:59:08.129Z,20.08
2022-10-05T12:02:04.195Z,20.04
2022-10-05T12:04:33.381Z,20.14
2022-10-05T12:07:15.486Z,20.37
2022-10-05T12:10:11.363Z,20.59
2022-10-05T12:13:10.030Z,20.48
2022-10-05T12:16:02.570Z,20.43
2022-10-05T12:18:32.574Z,20.42
2022-10-05T12:21:04.967Z,20.78
2022-10-05T12:23:37.322Z,20.82
2022-10-05T12:26:11.008Z,20.67
2022-10-05T12:28:48.924Z,20.52
2022-10-05T12:31:27.449Z,20.37
2022-10-05T12:34:22.643Z,20.27
2022-10-05T12:37:04.510Z,20.23
2022-10-05T12:39:54.554Z,20.26
2022-10-05T12:42:45.716Z,20.33
2022-10-05T12:45:32.276Z,20.42
2022-10-05T12:48:36.078Z,20.56
2022-10-05T12:51:27.858Z,20.45
2022-10-05T12:54:06.410Z,20.47
2022-10-05T12:57:01.601Z,20.65
2022-10-05T13:00:00.761Z,20.72
2022-10-05T13:03:09.753Z,20.80
2022-10-05T13:06:01.771Z,20.78
2022-10-05T13:08:55.892Z,20.80
2022-10-05T13:11:35.873Z,20.76
2022-10-05T13:14:35.266Z,20.76
2022-10-05T13:17:42.933Z,20.65
2022-10-05T13:20:22.452Z,20.69
2022-10-05T13:23:06.752Z,20.71
2022-10-05T13:25:41.054Z,20.74
2022-10-05T13:28:16.606Z,20.79
2022-10-05T13:30:52.162Z,20.86
2022-10-05T13:33:28.609Z,20.92
2022-10-05T13:36:10.869Z,21.07
2022-10-05T13:38:54.907Z,21.25
2022-10-05T13:41:36.545Z,21.48
2022-10-05T13:44:24.008Z,21.70
2022-10-05T13:47:01.974Z,21.79
2022-10-05T13:49:32.772Z,22.00
2022-10-05T13:52:08.664Z,22.38
2022-10-05T13:54:49.516Z,22.57
2022-10-05T13:57:44.901Z,22.97
2022-10-05T14:00:25.656Z,22.93
2022-10-05T14:02:56.219Z,23.04
2022-10-05T14:05:28.406Z,22.98
2022-10-05T14:07:56.626Z,23.00
2022-10-05T14:10:35.046Z,23.28
2022-10-05T14:13:18.200Z,23.36
2022-10-05T14:16:04.321Z,23.56
2022-10-05T14:18:33.610Z,23.95
2022-10-05T14:21:12.566Z,23.81
2022-10-05T14:23:39.009Z,23.82
2022-10-05T14:26:20.269Z,23.68
2022-10-05T14:29:00.335Z,23.52
2022-10-05T14:31:29.724Z,23.49
2022-10-05T14:33:56.320Z,23.66
2022-10-05T14:36:39.105Z,23.80
2022-10-05T14:39:12.493Z,23.88
2022-10-05T14:41:46.166Z,23.97
2022-10-05T14:44:12.595Z,24.10
2022-10-05T14:46:51.945Z,24.50
2022-10-05T14:49:28.118Z,24.61
2022-10-05T14:51:55.874Z,24.24
2022-10-05T14:54:22.240Z,24.49
2022-10-05T14:56:58.004Z,24.74
2022-10-05T14:59:40.129Z,24.77
2022-10-05T15:02:45.052Z,24.92
2022-10-05T15:05:16.276Z,25.04
2022-10-05T15:07:44.215Z,24.92
2022-10-05T15:10:57.103Z,24.79
2022-10-05T15:13:32.687Z,25.07
2022-10-05T15:16:05.446Z,24.41
2022-10-05T15:18:48.705Z,23.90
2022-10-05T15:21:27.137Z,24.16
2022-10-05T15:24:07.104Z,23.67
2022-10-05T15:26:42.687Z,24.04
2022-10-05T15:29:38.554Z,23.97
2022-10-05T15:32:34.348Z,24.09
2022-10-05T15:35:22.010Z,23.77
2022-10-05T15:37:56.345Z,23.78
2022-10-05T15:40:27.925Z,23.28
2022-10-05T15:43:02.700Z,23.07
2022-10-05T15:45:38.201Z,22.82
2022-10-05T15:48:04.627Z,22.07
2022-10-05T15:50:50.458Z,22.12
2022-10-05T15:53:41.887Z,21.61
2022-10-05T15:56:19.241Z,21.33
2022-10-05T15:58:55.636Z,20.79
2022-10-05T16:01:43.655Z,20.82
2022-10-05T16:04:22.919Z,20.75
2022-10-05T16:07:19.920Z,20.70
2022-10-05T16:10:09.101Z,20.44
2022-10-05T16:13:00.392Z,20.46
2022-10-05T16:15:40.541Z,20.27
2022-10-05T16:18:35.819Z,20.05
2022-10-05T16:21:21.640Z,19.42
2022-10-05T16:24:10.587Z,19.35
2022-10-05T16:26:49.769Z,19.03
2022-10-05T16:29:16.192Z,18.50
2022-10-05T16:32:14.108Z,18.11
2022-10-05T16:35:10.811Z,18.01
2022-10-05T16:38:29.540Z,17.68
2022-10-05T16:41:03.949Z,17.22
2022-10-05T16:43:52.026Z,16.83
2022-10-05T16:46:31.874Z,16.74
2022-10-05T16:49:20.419Z,16.36
2022-10-05T16:51:57.096Z,16.02
2022-10-05T16:54:32.303Z,16.02
2022-10-05T16:57:19.923Z,15.71
2022-10-05T16:59:59.671Z,15.14
2022-10-05T17:02:45.792Z,15.17
2022-10-05T17:05:27.423Z,14.94
2022-10-05T17:08:31.564Z,14.87
2022-10-05T17:11:31.236Z,14.55
2022-10-05T17:14:08.201Z,14.51
2022-10-05T17:16:45.024Z,14.36
2022-10-05T17:19:50.425Z,14.25
2022-10-05T17:22:26.348Z,14.13
2022-10-05T17:25:14.288Z,13.88
2022-10-05T17:27:57.785Z,13.82
2022-10-05T17:30:27.316Z,13.69
2022-10-05T17:33:03.216Z,13.68
2022-10-05T17:36:09.625Z,13.52
2022-10-05T17:38:48.509Z,13.34
2022-10-05T17:41:20.188Z,13.24
2022-10-05T17:44:05.273Z,13.21
2022-10-05T17:46:45.538Z,12.98
2022-10-05T17:49:36.744Z,13.01
2022-10-05T17:52:38.532Z,12.94
2022-10-05T17:55:27.982Z,12.75
2022-10-05T17:57:59.964Z,12.70
2022-10-05T18:00:40.635Z,12.48
2022-10-05T18:03:34.043Z,12.34
2022-10-05T18:06:22.202Z,12.25
2022-10-05T18:08:48.760Z,12.18
2022-10-05T18:11:37.956Z,12.15
2022-10-05T18:14:18.134Z,12.13
2022-10-05T18:17:11.213Z,11.88
2022-10-05T18:19:39.370Z,11.93
2022-10-05T18:22:17.739Z,11.83
2022-10-05T18:24:48.925Z,11.92
2022-10-05T18:27:52.776Z,11.84
2022-10-05T18:30:22.504Z,11.92
2022-10-05T18:33:03.920Z,11.61
2022-10-05T18:35:52.193Z,11.54
2022-10-05T18:39:02.944Z,11.54
2022-10-05T18:41:51.118Z,11.54
2022-10-05T18:44:34.475Z,11.37
2022-10-05T18:47:12.204Z,11.58
2022-10-05T18:50:33.002Z,11.54
2022-10-05T18:53:24.004Z,11.44
2022-10-05T18:56:04.873Z,11.38
2022-10-05T18:58:55.924Z,11.39
2022-10-05T19:01:28.993Z,11.38
2022-10-05T19:04:04.842Z,11.47
2022-10-05T19:06:59.989Z,11.47
2022-10-05T19:09:47.013Z,11.53
2022-10-05T19:12:31.916Z,11.53
2022-10-05T19:15:10.076Z,11.55
2022-10-05T19:18:00.267Z,11.44
2022-10-05T19:20:37.398Z,11.49
2022-10-05T19:23:13.109Z,11.52
2022-10-05T19:25:47.434Z,11.41
2022-10-05T19:28:24.064Z,11.41
2022-10-05T19:30:54.670Z,11.36
2022-10-05T19:33:42.168Z,11.43
2022-10-05T19:36:29.416Z,11.28
2022-10-05T19:39:21.328Z,11.27
2022-10-05T19:41:56.888Z,11.36
2022-10-05T19:44:36.433Z,11.39
2022-10-05T19:47:18.731Z,11.41
2022-10-05T19:49:58.608Z,11.40
2022-10-05T19:52:37.631Z,11.42
2022-10-05T19:55:15.261Z,11.46
2022-10-05T19:57:50.767Z,11.40
2022-10-05T20:00:21.641Z,11.34
2022-10-05T20:02:50.591Z,11.45
2022-10-05T20:05:18.195Z,11.12
2022-10-05T20:07:44.721Z,11.23
2022-10-05T20:10:24.468Z,11.18
2022-10-05T20:12:57.434Z,11.05
2022-10-05T20:15:51.475Z,11.06
2022-10-05T20:19:04.684Z,10.94
2022-10-05T20:21:56.499Z,10.94
2022-10-05T20:24:25.753Z,11.03
2022-10-05T20:27:07.011Z,10.90
2022-10-05T20:29:39.041Z,10.94
2022-10-05T20:32:17.720Z,10.99
2022-10-05T20:34:46.581Z,11.06
2022-10-05T20:37:15.725Z,11.11
2022-10-05T20:39:42.943Z,10.97
2022-10-05T20:42:10.589Z,10.91
2022-10-05T20:44:37.892Z,10.77
2022-10-05T20:47:05.847Z,10.91
2022-10-05T20:49:32.326Z,10.93
2022-10-05T20:51:59.444Z,10.98
2022-10-05T20:54:27.110Z,10.96
2022-10-05T20:56:57.371Z,11.29
2022-10-05T20:59:24.932Z,11.95
2022-10-05T21:01:52.139Z,12.48
2022-10-05T21:04:21.360Z,12.99
2022-10-05T21:06:48.361Z,13.25
2022-10-05T21:09:19.365Z,13.53
2022-10-05T21:11:47.585Z,13.86
2022-10-05T21:14:14.280Z,13.96
2022-10-05T21:16:41.222Z,14.13
2022-10-05T21:19:09.710Z,14.23
2022-10-05T21:21:36.462Z,14.30
2022-10-05T21:24:03.493Z,14.41
2022-10-05T21:26:30.028Z,14.51
2022-10-05T21:28:58.266Z,14.62
2022-10-05T21:31:25.742Z,14.73
2022-10-05T21:33:52.335Z,14.78
2022-10-05T21:36:23.835Z,14.78
2022-10-05T21:38:52.655Z,14.81
2022-10-05T21:41:19.668Z,14.79
2022-10-05T21:43:46.149Z,14.85
2022-10-05T21:46:15.853Z,14.88
2022-10-05T21:48:42.844Z,14.85
2022-10-05T21:51:13.307Z,14.85
2022-10-05T21:53:45.958Z,14.85
2022-10-05T21:56:15.908Z,14.83
2022-10-05T21:58:46.396Z,14.83
2022-10-05T22:01:12.915Z,14.79
2022-10-05T22:03:39.390Z,14.63
2022-10-05T22:06:05.972Z,14.55
2022-10-05T22:08:34.114Z,14.55
2022-10-05T22:11:01.304Z,14.65
2022-10-05T22:13:38.813Z,14.63
2022-10-05T22:16:05.432Z,14.66
2022-10-05T22:18:32.127Z,14.64
2022-10-05T22:20:58.752Z,14.51
2022-10-05T22:23:25.148Z,14.75
2022-10-05T22:25:51.630Z,14.91
2022-10-05T22:28:18.110Z,15.01
2022-10-05T22:30:45.360Z,15.09
2022-10-05T22:33:12.252Z,15.13
2022-10-05T22:35:39.164Z,15.14
2022-10-05T22:38:05.583Z,15.18
2022-10-05T22:40:31.980Z,15.19
2022-10-05T22:42:58.445Z,15.16
2022-10-05T22:45:29.148Z,15.13
2022-10-05T22:47:58.137Z,15.13
2022-10-05T22:50:24.593Z,15.12
2022-10-05T22:52:52.345Z,15.16
2022-10-05T22:55:18.951Z,15.16
2022-10-05T22:57:45.445Z,15.14
2022-10-05T23:00:12.963Z,15.13
2022-10-05T23:02:42.451Z,15.10
2022-10-05T23:05:10.515Z,15.07
2022-10-05T23:07:38.997Z,15.08
2022-10-05T23:10:06.728Z,15.04
2022-10-05T23:12:34.616Z,15.02
2022-10-05T23:15:01.779Z,15.01
2022-10-05T23:17:28.625Z,15.00
2022-10-05T23:19:55.006Z,14.95
2022-10-05T23:22:21.546Z,14.94
2022-10-05T23:24:47.976Z,14.93
2022-10-05T23:27:14.644Z,14.94
2022-10-05T23:29:41.068Z,14.91
2022-10-05T23:32:07.975Z,14.90
2022-10-05T23:34:34.548Z,14.95
2022-10-05T23:37:00.921Z,14.90
2022-10-05T23:39:27.297Z,14.85
2022-10-05T23:41:53.747Z,14.82
2022-10-05T23:44:20.469Z,14.79
2022-10-05T23:46:46.866Z,14.70
2022-10-05T23:49:14.698Z,14.61
2022-10-05T23:51:42.245Z,14.53
2022-10-05T23:54:08.664Z,14.49
2022-10-05T23:56:35.149Z,14.48
2022-10-05T23:59:01.530Z,14.40
